Time;durP1;ratioP1;P1;durP2;ratioP2;P2;SDS_P1;SDS_P2;PMS_P1;PMS_P2;Temp;Humidity;BMP_temperature;BMP_pressure;BME280_temperature;BME280_humidity;BME280_pressure;Samples;Min_cycle;Max_cycle;Signal;HPM_P1;HPM_P2
2022/03/10 00:00:07;;;;;;;18.55;10.48;;;3.00;99.90;;;;;;5035764;28;20040;-74
2022/03/10 00:02:33;;;;;;;17.15;11.40;;;2.90;99.90;;;;;;5052569;28;20397;-73
2022/03/10 00:04:59;;;;;;;19.00;10.82;;;3.00;99.90;;;;;;5051777;28;20037;-74
2022/03/10 00:07:24;;;;;;;17.50;10.45;;;3.60;99.90;;;;;;5035352;28;20041;-74
2022/03/10 00:09:50;;;;;;;14.82;10.45;;;3.00;99.90;;;;;;5035473;28;20090;-74
2022/03/10 00:12:16;;;;;;;16.63;10.10;;;3.10;99.90;;;;;;5035234;28;20048;-74
2022/03/10 00:14:42;;;;;;;17.63;11.23;;;3.00;99.90;;;;;;5035268;28;20041;-74
2022/03/10 00:17:08;;;;;;;15.88;10.63;;;3.00;99.90;;;;;;5035092;28;20496;-74
2022/03/10 00:19:34;;;;;;;16.38;10.13;;;3.40;99.90;;;;;;5034956;28;20408;-74
2022/03/10 00:22:00;;;;;;;21.75;12.57;;;3.00;99.90;;;;;;5035520;28;20047;-74
2022/03/10 00:24:25;;;;;;;20.08;11.52;;;2.80;99.90;;;;;;5051513;28;20132;-74
2022/03/10 00:26:51;;;;;;;19.88;11.15;;;3.00;99.90;;;;;;5051374;28;20048;-74
2022/03/10 00:29:17;;;;;;;19.58;12.02;;;2.90;99.90;;;;;;5051563;28;20040;-74
2022/03/10 00:31:43;;;;;;;20.80;10.23;;;3.00;99.90;;;;;;5035255;28;20079;-74
2022/03/10 00:34:09;;;;;;;17.23;11.15;;;2.90;99.90;;;;;;5051523;28;20052;-73
2022/03/10 00:36:35;;;;;;;16.60;10.02;;;2.90;99.90;;;;;;5034568;28;20037;-73
2022/03/10 00:39:01;;;;;;;17.60;10.73;;;2.80;99.90;;;;;;5051191;28;20106;-73
2022/03/10 00:41:27;;;;;;;19.17;10.63;;;2.90;99.90;;;;;;5051110;28;20059;-73
2022/03/10 00:43:52;;;;;;;19.60;11.18;;;2.80;99.90;;;;;;5034775;28;20045;-73
2022/03/10 00:46:18;;;;;;;16.50;10.52;;;2.80;99.90;;;;;;5051482;28;20041;-73
2022/03/10 00:48:44;;;;;;;19.67;11.55;;;2.80;99.90;;;;;;5051002;28;20044;-73
2022/03/10 00:51:09;;;;;;;18.70;11.75;;;2.70;99.90;;;;;;5051075;28;20116;-73
2022/03/10 00:53:35;;;;;;;20.92;11.70;;;2.80;99.90;;;;;;5034685;28;20045;-74
2022/03/10 00:56:01;;;;;;;16.92;11.27;;;3.20;99.90;;;;;;5033689;28;20052;-74
2022/03/10 00:58:27;;;;;;;16.75;10.70;;;2.90;99.90;;;;;;5050294;28;20061;-73
2022/03/10 01:00:52;;;;;;;17.10;11.45;;;2.70;99.90;;;;;;5034278;28;20408;-73
2022/03/10 01:03:19;;;;;;;20.27;11.57;;;2.70;99.90;;;;;;5034242;28;20128;-73
2022/03/10 01:05:45;;;;;;;15.63;10.57;;;2.90;99.90;;;;;;5051146;28;20052;-73
2022/03/10 01:08:11;;;;;;;18.23;11.50;;;2.80;99.90;;;;;;5017813;28;20072;-73
2022/03/10 01:10:37;;;;;;;18.13;11.55;;;2.70;99.90;;;;;;5050677;28;20049;-73
2022/03/10 01:13:02;;;;;;;19.95;11.65;;;2.90;99.90;;;;;;5050700;28;20044;-74
2022/03/10 01:15:29;;;;;;;18.33;10.93;;;3.40;99.90;;;;;;5050724;28;20063;-74
2022/03/10 01:17:56;;;;;;;20.42;11.75;;;2.50;99.90;;;;;;5051201;28;20041;-74
2022/03/10 01:20:23;;;;;;;18.63;10.77;;;2.50;99.90;;;;;;5050587;28;20033;-74
2022/03/10 01:22:50;;;;;;;18.73;11.95;;;2.60;99.90;;;;;;5034321;28;20107;-74
2022/03/10 01:25:18;;;;;;;18.33;11.55;;;2.70;99.90;;;;;;5050686;28;20103;-73
2022/03/10 01:27:44;;;;;;;18.48;11.20;;;2.60;99.90;;;;;;5050555;28;20064;-73
2022/03/10 01:30:10;;;;;;;21.58;11.63;;;3.70;99.90;;;;;;5034050;28;20076;-74
2022/03/10 01:32:36;;;;;;;19.73;12.32;;;2.40;99.90;;;;;;5033844;28;20052;-73
2022/03/10 01:35:03;;;;;;;23.10;13.13;;;2.70;99.90;;;;;;5017443;28;20045;-74
2022/03/10 01:37:29;;;;;;;20.98;12.35;;;2.40;99.90;;;;;;5033807;28;20037;-74
2022/03/10 01:39:55;;;;;;;17.02;11.95;;;2.50;99.90;;;;;;5050340;28;20476;-74
2022/03/10 01:42:22;;;;;;;18.17;11.60;;;2.40;99.90;;;;;;5033776;28;20041;-74
2022/03/10 01:44:55;;;;;;;20.23;12.07;;;2.40;99.90;;;;;;5050207;28;20053;-72
2022/03/10 01:47:22;;;;;;;17.80;11.68;;;2.30;99.90;;;;;;5050119;28;20083;-73
2022/03/10 01:49:48;;;;;;;18.33;11.57;;;2.40;99.90;;;;;;5050246;28;20052;-73
2022/03/10 01:52:15;;;;;;;17.98;12.13;;;2.40;99.90;;;;;;5050126;28;20098;-73
2022/03/10 01:54:41;;;;;;;17.05;11.13;;;2.30;99.90;;;;;;5033475;28;20041;-72
2022/03/10 01:57:09;;;;;;;17.30;11.57;;;2.40;99.90;;;;;;5050125;28;20110;-72
2022/03/10 01:59:36;;;;;;;21.33;13.18;;;2.20;99.90;;;;;;5050061;28;20083;-73
2022/03/10 02:02:02;;;;;;;22.05;11.60;;;2.20;99.90;;;;;;5050166;28;20075;-73
2022/03/10 02:04:28;;;;;;;25.80;13.20;;;2.20;99.90;;;;;;5033487;28;20491;-73
2022/03/10 02:06:54;;;;;;;26.27;12.93;;;2.10;99.90;;;;;;5033687;28;20052;-72
2022/03/10 02:12:07;;;;;;;22.48;12.32;;;2.10;99.90;;;;;;5039822;28;20055;-73
2022/03/10 02:17:20;;;;;;;20.58;12.05;;;2.20;99.90;;;;;;5039917;28;20404;-73
2022/03/10 02:19:51;;;;;;;22.25;12.48;;;2.60;99.90;;;;;;5054400;28;20055;-73
2022/03/10 02:22:18;;;;;;;22.40;12.25;;;2.20;99.90;;;;;;5053655;28;20044;-73
2022/03/10 02:24:44;;;;;;;18.85;12.27;;;2.00;99.90;;;;;;5037571;28;20118;-73
2022/03/10 02:27:13;;;;;;;17.38;10.90;;;2.20;99.90;;;;;;5037546;28;20041;-73
2022/03/10 02:29:42;;;;;;;17.15;12.13;;;2.40;99.90;;;;;;5053565;28;20076;-73
2022/03/10 02:32:08;;;;;;;20.85;11.57;;;2.20;99.90;;;;;;5053573;28;20141;-73
2022/03/10 02:34:33;;;;;;;21.45;12.38;;;2.20;99.90;;;;;;5053710;28;20032;-73
2022/03/10 02:36:59;;;;;;;21.67;12.75;;;2.20;99.90;;;;;;5053421;28;20072;-73
2022/03/10 02:39:24;;;;;;;21.25;11.77;;;2.30;99.90;;;;;;5053407;28;20090;-73
2022/03/10 02:41:50;;;;;;;24.65;12.63;;;2.00;99.90;;;;;;5053684;28;20102;-73
2022/03/10 02:44:16;;;;;;;17.50;11.75;;;2.40;99.90;;;;;;5036889;28;20385;-73
2022/03/10 02:46:41;;;;;;;20.02;11.70;;;2.30;99.90;;;;;;5053606;28;20045;-73
2022/03/10 02:49:07;;;;;;;17.45;11.50;;;2.40;99.90;;;;;;5037210;28;20194;-73
2022/03/10 02:51:33;;;;;;;18.15;11.35;;;2.00;99.90;;;;;;5053288;28;20057;-73
2022/03/10 02:53:58;;;;;;;22.05;12.35;;;1.90;99.90;;;;;;5036531;28;20045;-73
2022/03/10 02:56:24;;;;;;;18.45;11.90;;;2.10;99.90;;;;;;5036490;28;20045;-72
2022/03/10 02:58:50;;;;;;;25.45;12.95;;;1.90;99.90;;;;;;5036461;28;20456;-72
2022/03/10 03:01:15;;;;;;;21.40;11.90;;;1.90;99.90;;;;;;5036850;28;20049;-73
2022/03/10 03:03:41;;;;;;;18.10;11.82;;;1.90;99.90;;;;;;5036461;28;20043;-72
2022/03/10 03:06:07;;;;;;;19.13;11.13;;;1.80;99.90;;;;;;5036402;28;20048;-72
2022/03/10 03:08:34;;;;;;;18.88;11.40;;;1.90;99.90;;;;;;5053326;28;20611;-72
2022/03/10 03:10:59;;;;;;;20.25;11.93;;;2.30;99.90;;;;;;5053366;28;20044;-73
2022/03/10 03:13:25;;;;;;;20.80;12.43;;;2.00;99.90;;;;;;5036413;28;20095;-72
2022/03/10 03:15:51;;;;;;;24.25;12.48;;;1.90;99.90;;;;;;5052958;28;20127;-73
2022/03/10 03:18:16;;;;;;;17.70;11.10;;;2.00;99.90;;;;;;5053018;28;20043;-72
2022/03/10 03:20:42;;;;;;;18.77;11.13;;;2.00;99.90;;;;;;5051863;28;20071;-73
2022/03/10 03:23:08;;;;;;;17.65;11.50;;;1.80;99.90;;;;;;5036116;28;20997;-73
2022/03/10 03:25:33;;;;;;;20.23;11.82;;;2.00;99.90;;;;;;5036127;28;20385;-73
2022/03/10 03:27:59;;;;;;;17.88;11.88;;;2.10;99.90;;;;;;5053014;28;20086;-72
2022/03/10 03:30:25;;;;;;;17.90;11.65;;;1.90;99.90;;;;;;5019966;28;20037;-73
2022/03/10 03:32:50;;;;;;;19.00;11.75;;;2.30;99.90;;;;;;5035907;28;20045;-73
2022/03/10 03:35:16;;;;;;;19.92;11.73;;;1.90;99.90;;;;;;5035981;28;20515;-73
2022/03/10 03:37:42;;;;;;;17.13;11.57;;;1.80;99.90;;;;;;5036049;28;20045;-73
2022/03/10 03:40:09;;;;;;;20.65;12.07;;;1.90;99.90;;;;;;5052282;28;20036;-73
2022/03/10 03:42:35;;;;;;;17.42;10.73;;;1.70;99.90;;;;;;5052237;28;20386;-73
2022/03/10 03:45:02;;;;;;;19.70;11.15;;;1.80;99.90;;;;;;5052566;28;20041;-73
2022/03/10 03:47:28;;;;;;;19.80;11.20;;;1.90;99.90;;;;;;5035805;28;20083;-72
2022/03/10 03:49:54;;;;;;;18.05;11.38;;;1.70;99.90;;;;;;5035604;28;20041;-72
2022/03/10 03:52:20;;;;;;;19.88;11.85;;;1.90;99.90;;;;;;5052304;28;20048;-73
2022/03/10 03:54:46;;;;;;;15.98;10.45;;;1.90;99.90;;;;;;5051988;28;20466;-73
2022/03/10 03:57:11;;;;;;;18.27;11.27;;;1.90;99.90;;;;;;5035454;28;20079;-72
2022/03/10 03:59:37;;;;;;;18.83;11.02;;;2.10;99.90;;;;;;5051943;28;20057;-73
2022/03/10 04:02:03;;;;;;;16.75;10.30;;;1.80;99.90;;;;;;5051961;28;20140;-72
2022/03/10 04:04:30;;;;;;;16.88;11.30;;;1.80;99.90;;;;;;5035584;28;20381;-72
2022/03/10 04:06:56;;;;;;;17.15;11.25;;;1.90;99.90;;;;;;5052131;28;20059;-72
2022/03/10 04:09:22;;;;;;;16.70;10.23;;;1.90;99.90;;;;;;5051847;28;20036;-74
2022/03/10 04:11:49;;;;;;;20.77;11.43;;;1.80;99.90;;;;;;5052234;28;20087;-73
2022/03/10 04:14:15;;;;;;;19.20;11.75;;;2.00;99.90;;;;;;5051750;28;20080;-73
2022/03/10 04:16:41;;;;;;;16.70;11.32;;;1.90;99.90;;;;;;5051577;28;20045;-73
2022/03/10 04:19:07;;;;;;;15.23;10.43;;;2.10;99.90;;;;;;5051735;28;20404;-74
2022/03/10 04:21:33;;;;;;;18.95;11.10;;;2.00;99.90;;;;;;5051587;28;20048;-74
2022/03/10 04:23:59;;;;;;;18.65;11.65;;;1.80;99.90;;;;;;5051372;28;20049;-73
2022/03/10 04:26:25;;;;;;;19.00;11.38;;;2.00;99.90;;;;;;5051690;28;20052;-73
2022/03/10 04:28:51;;;;;;;16.25;11.10;;;1.90;99.90;;;;;;5051364;28;20066;-73
2022/03/10 04:31:16;;;;;;;19.48;11.38;;;1.80;99.90;;;;;;5034621;28;20083;-73
2022/03/10 04:33:42;;;;;;;19.58;11.73;;;1.80;99.90;;;;;;5034957;28;20072;-73
2022/03/10 04:36:08;;;;;;;18.33;10.88;;;1.90;99.90;;;;;;5051105;28;20540;-73
2022/03/10 04:38:34;;;;;;;18.88;11.23;;;1.70;99.90;;;;;;5051696;28;20961;-74
2022/03/10 04:40:59;;;;;;;18.60;11.98;;;1.90;99.90;;;;;;5034868;28;20087;-72
2022/03/10 04:43:25;;;;;;;20.88;11.48;;;2.20;99.90;;;;;;5034623;28;20041;-74
2022/03/10 04:45:51;;;;;;;19.90;11.40;;;1.70;99.90;;;;;;5051500;28;20480;-73
2022/03/10 04:48:17;;;;;;;17.42;11.40;;;1.60;99.90;;;;;;5051315;28;20056;-72
2022/03/10 04:50:43;;;;;;;17.63;10.88;;;1.70;99.90;;;;;;5034732;28;20067;-73
2022/03/10 04:53:09;;;;;;;17.02;11.05;;;1.50;99.90;;;;;;5034640;28;20037;-73
2022/03/10 04:55:35;;;;;;;18.63;10.77;;;1.60;99.90;;;;;;5050782;28;20045;-73
2022/03/10 04:58:00;;;;;;;18.70;11.57;;;1.60;99.90;;;;;;5034183;28;20132;-73
2022/03/10 05:00:26;;;;;;;16.98;10.32;;;1.60;99.90;;;;;;5050925;28;20098;-73
2022/03/10 05:02:52;;;;;;;16.92;10.93;;;1.50;99.90;;;;;;5018270;28;20419;-73
2022/03/10 05:05:18;;;;;;;17.70;11.70;;;1.50;99.90;;;;;;5051329;28;20075;-73
2022/03/10 05:07:44;;;;;;;18.45;11.75;;;1.30;99.90;;;;;;5050872;28;20408;-73
2022/03/10 05:10:11;;;;;;;18.15;10.95;;;1.40;99.90;;;;;;5050826;28;20079;-72
2022/03/10 05:12:51;;;;;;;20.88;11.65;;;1.70;99.90;;;;;;5051063;28;20053;-73
2022/03/10 05:15:19;;;;;;;17.27;10.95;;;2.40;99.90;;;;;;5050575;28;20079;-73
2022/03/10 05:17:45;;;;;;;17.75;12.38;;;1.50;99.90;;;;;;5050666;28;20093;-72
2022/03/10 05:20:10;;;;;;;18.40;11.45;;;1.50;99.90;;;;;;5050676;28;20485;-73
2022/03/10 05:22:52;;;;;;;16.38;11.35;;;1.30;99.90;;;;;;5034068;28;20040;-73
2022/03/10 05:25:18;;;;;;;;;;;1.40;99.90;;;;;;5051108;28;20040;-73
2022/03/10 05:27:46;;;;;;;18.40;11.05;;;2.00;99.90;;;;;;5033843;28;19916;-74
2022/03/10 05:30:13;;;;;;;18.48;11.65;;;1.40;99.90;;;;;;5050334;28;20047;-73
2022/03/10 05:32:39;;;;;;;17.45;11.95;;;1.40;99.90;;;;;;5050280;28;20052;-73
2022/03/10 05:35:06;;;;;;;18.08;11.23;;;2.00;99.90;;;;;;5050188;28;20385;-73
2022/03/10 05:37:34;;;;;;;17.10;11.38;;;1.40;99.90;;;;;;5050793;28;20033;-73
2022/03/10 05:40:00;;;;;;;17.58;10.98;;;1.60;99.90;;;;;;5050275;28;20079;-73
2022/03/10 05:42:26;;;;;;;15.82;10.80;;;1.70;99.90;;;;;;5051265;28;20461;-71
2022/03/10 05:44:51;;;;;;;16.42;10.55;;;1.50;99.90;;;;;;5056961;28;20072;-72
2022/03/10 05:47:17;;;;;;;19.33;11.00;;;1.90;99.90;;;;;;5056881;28;20127;-73
2022/03/10 05:49:43;;;;;;;18.15;11.55;;;1.50;99.90;;;;;;5056910;28;20134;-72
2022/03/10 05:52:08;;;;;;;17.80;10.13;;;1.50;99.90;;;;;;5056788;28;20083;-73
2022/03/10 05:54:35;;;;;;;19.85;11.18;;;1.70;99.90;;;;;;5057038;28;20041;-72
2022/03/10 05:57:01;;;;;;;19.35;12.63;;;1.60;99.90;;;;;;5057096;28;20132;-72
2022/03/10 05:59:27;;;;;;;15.05;10.93;;;2.00;99.90;;;;;;5040050;28;20500;-73
2022/03/10 06:01:52;;;;;;;15.98;10.77;;;1.60;99.90;;;;;;5040244;28;20534;-73
2022/03/10 06:04:18;;;;;;;18.33;10.88;;;1.70;99.90;;;;;;5040130;28;20037;-73
2022/03/10 06:06:44;;;;;;;19.13;11.55;;;1.70;99.90;;;;;;5040507;28;20037;-73
2022/03/10 06:09:10;;;;;;;22.73;11.02;;;1.80;99.90;;;;;;5057071;28;20040;-73
2022/03/10 06:11:36;;;;;;;16.70;11.65;;;2.20;99.90;;;;;;5056751;28;20043;-73
2022/03/10 06:14:02;;;;;;;17.23;11.60;;;1.80;99.90;;;;;;5056964;28;20041;-74
2022/03/10 06:16:27;;;;;;;18.67;11.40;;;1.90;99.90;;;;;;5057231;28;20535;-73
2022/03/10 06:18:53;;;;;;;23.88;10.75;;;1.80;99.90;;;;;;5039980;28;20045;-73
2022/03/10 06:21:21;;;;;;;18.10;11.20;;;1.70;99.90;;;;;;5056842;28;20412;-73
2022/03/10 06:23:47;;;;;;;18.10;11.57;;;1.80;99.90;;;;;;5057155;28;20052;-73
2022/03/10 06:26:13;;;;;;;18.25;10.65;;;1.80;99.90;;;;;;5057056;28;20044;-73
2022/03/10 06:28:39;;;;;;;16.50;11.40;;;1.80;99.90;;;;;;5057001;28;20434;-73
2022/03/10 06:31:06;;;;;;;18.98;11.45;;;1.80;99.90;;;;;;5056517;28;20124;-73
2022/03/10 06:33:33;;;;;;;19.23;11.55;;;3.70;99.90;;;;;;5039826;28;20086;-73
2022/03/10 06:35:58;;;;;;;18.35;11.68;;;1.70;99.90;;;;;;5056759;28;20443;-73
2022/03/10 06:38:24;;;;;;;23.02;11.23;;;1.70;99.90;;;;;;5056615;28;20037;-74
2022/03/10 06:40:50;;;;;;;17.42;11.13;;;1.70;99.90;;;;;;5056445;28;20041;-72
2022/03/10 06:43:18;;;;;;;20.35;11.65;;;1.70;99.90;;;;;;5056660;28;20447;-73
2022/03/10 06:45:44;;;;;;;18.08;12.13;;;1.70;99.90;;;;;;5023603;28;20528;-73
2022/03/10 06:48:10;;;;;;;17.27;11.38;;;1.80;99.90;;;;;;5056507;28;20106;-73
2022/03/10 06:50:37;;;;;;;17.00;10.95;;;1.90;99.90;;;;;;5056683;28;20064;-74
2022/03/10 06:53:03;;;;;;;23.13;11.90;;;3.80;99.90;;;;;;5056606;28;20045;-73
2022/03/10 06:55:29;;;;;;;18.48;12.13;;;2.30;99.90;;;;;;5053608;28;20049;-73
2022/03/10 06:57:55;;;;;;;20.70;12.63;;;2.50;99.90;;;;;;5036879;28;20568;-74
2022/03/10 07:00:22;;;;;;;16.80;10.93;;;2.50;99.90;;;;;;5053698;28;20500;-72
2022/03/10 07:02:48;;;;;;;19.55;12.13;;;2.10;99.90;;;;;;5036794;28;20049;-73
2022/03/10 07:05:14;;;;;;;15.95;11.45;;;2.20;99.90;;;;;;5053476;28;20048;-72
2022/03/10 07:07:39;;;;;;;19.50;11.95;;;2.40;99.90;;;;;;5053009;28;20041;-73
2022/03/10 07:10:06;;;;;;;19.75;12.65;;;2.50;99.90;;;;;;5036583;28;20048;-74
2022/03/10 07:12:36;;;;;;;19.02;12.20;;;2.50;99.90;;;;;;5020447;28;20040;-73
2022/03/10 07:15:03;;;;;;;18.15;11.05;;;2.90;99.90;;;;;;5036730;28;20110;-73
2022/03/10 07:17:29;;;;;;;17.17;11.57;;;2.70;99.90;;;;;;5020376;28;20040;-73
2022/03/10 07:19:55;;;;;;;17.95;11.57;;;2.90;99.90;;;;;;5052900;28;20037;-75
2022/03/10 07:22:20;;;;;;;17.60;11.35;;;3.40;99.90;;;;;;5036337;28;20037;-74
2022/03/10 07:24:46;;;;;;;17.23;11.45;;;3.10;99.90;;;;;;5036145;28;20088;-73
2022/03/10 07:27:12;;;;;;;21.13;11.65;;;3.60;99.90;;;;;;5035917;28;20076;-73
2022/03/10 07:29:38;;;;;;;19.95;11.75;;;3.20;99.90;;;;;;5035774;28;20084;-74
2022/03/10 07:32:04;;;;;;;20.83;11.98;;;3.30;99.90;;;;;;5052595;28;20045;-74
2022/03/10 07:34:31;;;;;;;16.58;11.80;;;3.30;99.90;;;;;;5019227;28;20153;-73
2022/03/10 07:36:57;;;;;;;19.17;11.25;;;3.40;99.90;;;;;;5052085;28;20033;-73
2022/03/10 07:39:22;;;;;;;21.83;12.73;;;3.80;99.90;;;;;;5052248;28;20404;-74
2022/03/10 07:41:48;;;;;;;17.92;11.40;;;3.70;99.90;;;;;;5019325;28;20059;-74
2022/03/10 07:44:14;;;;;;;20.67;11.45;;;3.70;99.90;;;;;;5052206;28;20408;-74
2022/03/10 07:46:40;;;;;;;16.38;11.88;;;3.90;99.90;;;;;;5052571;28;20037;-74
2022/03/10 07:49:06;;;;;;;19.40;12.27;;;3.80;99.90;;;;;;5052375;28;20049;-73
2022/03/10 07:51:31;;;;;;;19.58;12.70;;;3.80;99.90;;;;;;5052564;28;20036;-73
2022/03/10 07:53:57;;;;;;;18.25;12.05;;;3.90;99.90;;;;;;5051874;28;20115;-73
2022/03/10 07:56:23;;;;;;;19.23;12.18;;;4.10;99.90;;;;;;5035445;28;20488;-73
2022/03/10 07:58:48;;;;;;;16.20;11.35;;;4.20;99.90;;;;;;5035168;28;20076;-73
2022/03/10 08:01:14;;;;;;;22.48;12.57;;;4.30;99.90;;;;;;5051943;28;20407;-74
2022/03/10 08:03:40;;;;;;;17.33;11.90;;;4.50;99.90;;;;;;5035398;28;20040;-74
2022/03/10 08:06:06;;;;;;;19.85;12.52;;;4.60;99.90;;;;;;5051424;28;20606;-74
2022/03/10 08:08:32;;;;;;;16.70;12.60;;;4.70;99.90;;;;;;5051938;28;20408;-72
2022/03/10 08:10:58;;;;;;;18.45;11.88;;;4.80;99.90;;;;;;5035540;28;20053;-74
2022/03/10 08:13:26;;;;;;;21.35;12.05;;;5.00;99.90;;;;;;5051772;28;20056;-74
2022/03/10 08:15:55;;;;;;;18.10;11.57;;;5.00;99.90;;;;;;5051617;28;20041;-73
2022/03/10 08:18:20;;;;;;;20.73;12.85;;;5.10;99.90;;;;;;5034833;28;20044;-74
2022/03/10 08:20:47;;;;;;;20.13;12.43;;;5.50;99.90;;;;;;5051800;28;20044;-74
2022/03/10 08:23:13;;;;;;;19.40;12.48;;;5.40;99.90;;;;;;5034864;28;20041;-74
2022/03/10 08:25:39;;;;;;;19.80;12.50;;;5.50;99.90;;;;;;5051699;28;20051;-74
2022/03/10 08:28:06;;;;;;;17.65;11.65;;;5.60;99.90;;;;;;5002162;28;20044;-74
2022/03/10 08:30:32;;;;;;;16.42;12.27;;;5.70;99.90;;;;;;5034764;28;20466;-74
2022/03/10 08:32:58;;;;;;;19.67;13.27;;;5.80;99.90;;;;;;5034850;28;20124;-73
2022/03/10 08:35:24;;;;;;;18.17;11.73;;;5.80;99.90;;;;;;5034908;28;20045;-73
2022/03/10 08:37:50;;;;;;;22.13;12.35;;;5.90;99.90;;;;;;5034816;28;20571;-73
2022/03/10 08:40:18;;;;;;;15.52;12.07;;;6.60;99.90;;;;;;5018598;28;20044;-74
2022/03/10 08:42:45;;;;;;;17.08;11.95;;;6.10;99.90;;;;;;5051650;28;20045;-74
2022/03/10 08:45:11;;;;;;;18.20;12.40;;;6.20;99.90;;;;;;5051337;28;20066;-73
2022/03/10 08:47:37;;;;;;;18.15;12.27;;;6.50;99.90;;;;;;5051450;28;20045;-73
2022/03/10 08:50:03;;;;;;;15.20;11.25;;;6.40;99.90;;;;;;5052917;28;20041;-74
2022/03/10 08:52:29;;;;;;;18.85;12.10;;;6.50;99.90;;;;;;5034593;28;20033;-73
2022/03/10 08:54:55;;;;;;;18.45;12.30;;;6.40;99.90;;;;;;5034437;28;20052;-73
2022/03/10 08:57:21;;;;;;;17.80;11.60;;;6.50;99.90;;;;;;5051001;28;20102;-74
2022/03/10 08:59:47;;;;;;;18.42;12.32;;;6.60;99.90;;;;;;5034393;28;20057;-74
2022/03/10 09:02:13;;;;;;;15.85;12.32;;;6.70;99.90;;;;;;5018179;28;20393;-73
2022/03/10 09:04:39;;;;;;;18.98;12.23;;;6.80;99.90;;;;;;5051482;28;20123;-74
2022/03/10 09:07:05;;;;;;;16.40;12.02;;;6.90;99.90;;;;;;5051162;28;20048;-74
2022/03/10 09:09:31;;;;;;;15.98;12.13;;;7.00;99.90;;;;;;5050907;28;20055;-74
2022/03/10 09:11:57;;;;;;;20.48;13.05;;;7.10;99.90;;;;;;5034230;28;20080;-74
2022/03/10 09:14:23;;;;;;;17.25;12.95;;;7.30;99.90;;;;;;5018229;28;20044;-74
2022/03/10 09:16:51;;;;;;;19.65;12.52;;;7.40;99.90;;;;;;5050609;28;20515;-74
2022/03/10 09:19:17;;;;;;;19.48;12.45;;;8.00;99.90;;;;;;5033647;28;20041;-74
2022/03/10 09:21:43;;;;;;;17.90;12.00;;;7.50;99.90;;;;;;5050873;28;20036;-74
2022/03/10 09:24:09;;;;;;;18.63;12.00;;;7.70;99.90;;;;;;5051218;28;20076;-74
2022/03/10 09:26:35;;;;;;;19.45;11.73;;;7.70;99.90;;;;;;5017765;28;20044;-74
2022/03/10 09:29:01;;;;;;;18.92;12.52;;;7.80;99.90;;;;;;5034344;28;20044;-74
2022/03/10 09:31:27;;;;;;;17.05;12.07;;;7.70;99.90;;;;;;5050945;28;20037;-74
2022/03/10 09:33:53;;;;;;;18.92;12.82;;;8.40;99.90;;;;;;5034270;28;20055;-74
2022/03/10 09:36:19;;;;;;;18.23;12.23;;;8.20;99.90;;;;;;5033882;28;20037;-74
2022/03/10 09:38:45;;;;;;;17.42;12.88;;;8.30;99.90;;;;;;5050594;28;20076;-74
2022/03/10 09:41:12;;;;;;;17.85;12.13;;;8.60;99.90;;;;;;5034366;28;20091;-74
2022/03/10 09:43:39;;;;;;;18.63;12.50;;;8.50;99.90;;;;;;5050750;28;20053;-75
2022/03/10 09:46:08;;;;;;;18.42;12.45;;;;;;;;;;5034329;28;20049;-75
2022/03/10 09:48:36;;;;;;;18.00;11.98;;;8.60;99.90;;;;;;5034602;28;20056;-74
2022/03/10 09:51:02;;;;;;;16.15;11.02;;;8.90;99.90;;;;;;5050467;28;20076;-75
2022/03/10 09:53:30;;;;;;;14.40;11.13;;;8.80;99.90;;;;;;5050588;28;20049;-75
2022/03/10 09:55:56;;;;;;;17.05;11.82;;;;;;;;;;5034087;28;20673;-75
2022/03/10 09:58:22;;;;;;;17.23;12.32;;;9.00;99.90;;;;;;5050175;28;20412;-74
2022/03/10 10:00:48;;;;;;;16.90;11.93;;;9.10;99.90;;;;;;5050578;28;20048;-75
2022/03/10 10:03:14;;;;;;;16.65;11.63;;;;;;;;;;5050487;28;20047;-74
2022/03/10 10:05:41;;;;;;;16.10;11.82;;;;;;;;;;5050647;28;20079;-74
2022/03/10 10:08:17;;;;;;;18.85;11.90;;;9.40;99.90;;;;;;5050277;28;20045;-74
2022/03/10 10:10:46;;;;;;;16.23;12.07;;;9.60;99.90;;;;;;5017879;28;20044;-74
2022/03/10 10:13:29;;;;;;;16.08;10.40;;;10.00;99.90;;;;;;5033730;28;20083;-75
2022/03/10 10:16:01;;;;;;;17.58;11.35;;;10.20;99.90;;;;;;5050072;28;20033;-73
2022/03/10 10:18:28;;;;;;;18.13;11.93;;;9.80;99.90;;;;;;5050416;28;20077;-74
2022/03/10 10:20:55;;;;;;;18.13;11.80;;;9.90;99.90;;;;;;5033610;28;20045;-74
2022/03/10 10:23:22;;;;;;;17.65;11.25;;;9.70;99.90;;;;;;5033584;28;20037;-73
2022/03/10 10:25:59;;;;;;;15.30;11.60;;;10.20;99.90;;;;;;5050203;28;20079;-74
2022/03/10 10:28:31;;;;;;;15.90;11.52;;;10.20;99.50;;;;;;5050011;28;20044;-73
2022/03/10 10:30:59;;;;;;;13.57;10.45;;;10.40;99.00;;;;;;5053839;28;20041;-75
2022/03/10 10:33:25;;;;;;;14.70;10.95;;;10.50;99.80;;;;;;5037342;28;20048;-75
2022/03/10 10:36:12;;;;;;;15.70;11.90;;;10.60;99.50;;;;;;5037233;28;20036;-74
2022/03/10 10:38:39;;;;;;;17.55;11.60;;;10.70;99.90;;;;;;5053890;28;20049;-75
2022/03/10 10:41:20;;;;;;;18.60;12.68;;;11.00;99.20;;;;;;5036996;28;20033;-74
2022/03/10 10:43:49;;;;;;;19.27;12.30;;;11.10;99.60;;;;;;5053586;28;20547;-74
2022/03/10 10:46:34;;;;;;;17.77;12.55;;;11.30;98.40;;;;;;5036979;28;20118;-75
2022/03/10 10:49:22;;;;;;;16.52;11.52;;;11.40;97.00;;;;;;5053760;28;20127;-74
2022/03/10 10:51:50;;;;;;;18.35;11.88;;;;;;;;;;5036860;28;20111;-74
2022/03/10 10:54:24;;;;;;;13.73;10.65;;;11.70;99.90;;;;;;5036891;28;20053;-75
2022/03/10 10:56:53;;;;;;;16.10;11.40;;;;;;;;;;5053547;28;20033;-74
2022/03/10 10:59:43;;;;;;;17.58;11.90;;;11.70;99.90;;;;;;5053089;28;20057;-74
2022/03/10 11:02:12;;;;;;;16.38;11.63;;;11.90;99.90;;;;;;5027061;28;20391;-74
2022/03/10 11:04:48;;;;;;;16.63;11.60;;;12.10;97.90;;;;;;5053034;28;20040;-74
2022/03/10 11:07:15;;;;;;;15.32;11.93;;;12.20;98.20;;;;;;5036429;28;20045;-74
2022/03/10 11:09:43;;;;;;;16.30;12.13;;;12.00;94.70;;;;;;5036874;28;20041;-73
2022/03/10 11:12:11;;;;;;;16.13;11.15;;;12.10;94.30;;;;;;5036309;28;20037;-74
2022/03/10 11:14:37;;;;;;;15.43;10.68;;;12.10;94.80;;;;;;5036602;28;20404;-74
2022/03/10 11:17:03;;;;;;;16.38;12.02;;;12.10;93.60;;;;;;5036207;28;20150;-74
2022/03/10 11:19:37;;;;;;;16.38;11.60;;;12.20;93.80;;;;;;5052901;28;20033;-74
2022/03/10 11:22:06;;;;;;;17.33;11.32;;;12.30;92.90;;;;;;5052860;28;20048;-73
2022/03/10 11:24:56;;;;;;;17.45;12.65;;;12.40;93.80;;;;;;5036162;28;20033;-75
2022/03/10 11:27:28;;;;;;;16.05;11.73;;;12.50;91.90;;;;;;5052745;28;20107;-74
2022/03/10 11:29:56;;;;;;;17.92;11.55;;;12.60;92.80;;;;;;5053030;28;20032;-75
2022/03/10 11:32:30;;;;;;;16.52;11.25;;;12.80;91.70;;;;;;5052504;28;20053;-77
2022/03/10 11:34:58;;;;;;;18.27;12.75;;;12.90;91.40;;;;;;5052793;28;20135;-74
2022/03/10 11:37:43;;;;;;;15.70;11.98;;;12.90;92.00;;;;;;5052923;28;20033;-75
2022/03/10 11:40:14;;;;;;;17.88;11.70;;;13.20;92.60;;;;;;5020164;28;20127;-75
2022/03/10 11:42:41;;;;;;;19.10;12.43;;;13.30;91.90;;;;;;5052131;28;20044;-75
2022/03/10 11:45:19;;;;;;;15.55;11.80;;;13.40;90.50;;;;;;5052606;28;20041;-75
2022/03/10 11:47:47;;;;;;;17.55;12.25;;;13.50;87.50;;;;;;5035920;28;20044;-74
2022/03/10 11:50:22;;;;;;;16.52;12.48;;;13.60;85.70;;;;;;5052221;28;20102;-74
2022/03/10 11:53:07;;;;;;;16.77;12.55;;;13.80;84.90;;;;;;5052278;28;20040;-75
2022/03/10 11:55:43;;;;;;;16.67;12.65;;;13.90;84.00;;;;;;5002796;28;20112;-75
2022/03/10 11:58:11;;;;;;;16.95;12.95;;;13.90;80.10;;;;;;5052275;28;20594;-74
2022/03/10 12:01:00;;;;;;;17.30;12.50;;;13.90;82.60;;;;;;5035790;28;20504;-75
2022/03/10 12:03:36;;;;;;;17.67;12.10;;;14.10;82.70;;;;;;5035185;28;20137;-74
2022/03/10 12:06:15;;;;;;;18.83;13.13;;;14.40;83.30;;;;;;5052244;28;20056;-74
2022/03/10 12:08:41;;;;;;;19.15;13.85;;;14.70;80.80;;;;;;5035359;28;20099;-76
2022/03/10 12:11:15;;;;;;;18.10;13.52;;;14.70;80.10;;;;;;5035489;28;20076;-74
2022/03/10 12:13:44;;;;;;;18.98;13.60;;;15.00;78.60;;;;;;5035428;28;20080;-75
2022/03/10 12:16:22;;;;;;;16.10;12.25;;;15.10;75.80;;;;;;5051697;28;20554;-75
2022/03/10 12:18:48;;;;;;;16.27;13.32;;;15.30;75.20;;;;;;5051869;28;20073;-75
2022/03/10 12:21:22;;;;;;;18.80;12.70;;;15.40;72.50;;;;;;5051598;28;20073;-74
2022/03/10 12:24:02;;;;;;;15.98;12.77;;;15.60;72.50;;;;;;5051779;28;20047;-75
2022/03/10 12:26:36;;;;;;;19.83;14.15;;;15.80;68.70;;;;;;5019047;28;20411;-77
2022/03/10 12:29:05;;;;;;;21.05;13.55;;;16.00;69.40;;;;;;5051325;28;20079;-74
2022/03/10 12:31:35;;;;;;;16.85;13.38;;;16.00;70.10;;;;;;5051601;28;20139;-74
2022/03/10 12:34:00;;;;;;;22.17;14.40;;;16.10;68.90;;;;;;5035414;28;20037;-73
2022/03/10 12:36:41;;;;;;;17.58;13.00;;;16.30;69.20;;;;;;5051286;28;20079;-74
2022/03/10 12:39:16;;;;;;;19.08;13.48;;;16.10;68.80;;;;;;5051368;28;20041;-74
2022/03/10 12:41:45;;;;;;;20.67;13.90;;;16.00;67.70;;;;;;5051870;28;20072;-74
2022/03/10 12:44:12;;;;;;;17.35;13.23;;;15.90;66.00;;;;;;5051520;28;20512;-75